sensor_id;sensor_type;location;lat;lon;timestamp;P1;durP1;ratioP1;P2;durP2;ratioP2
61915;SDS011;47868;51.326;6.550;2022-11-21T00:00:45;23.25;;;17.77;;
61915;SDS011;47868;51.326;6.550;2022-11-21T00:03:12;24.67;;;17.63;;
61915;SDS011;47868;51.326;6.550;2022-11-21T00:05:39;22.65;;;18.10;;
61915;SDS011;47868;51.326;6.550;2022-11-21T00:08:06;26.15;;;18.88;;
61915;SDS011;47868;51.326;6.550;2022-11-21T00:10:33;23.92;;;18.58;;
61915;SDS011;47868;51.326;6.550;2022-11-21T00:13:01;24.13;;;18.63;;
61915;SDS011;47868;51.326;6.550;2022-11-21T00:15:26;29.33;;;19.00;;
61915;SDS011;47868;51.326;6.550;2022-11-21T00:17:52;31.77;;;20.42;;
61915;SDS011;47868;51.326;6.550;2022-11-21T00:20:18;30.27;;;20.67;;
61915;SDS011;47868;51.326;6.550;2022-11-21T00:22:45;31.02;;;20.67;;
61915;SDS011;47868;51.326;6.550;2022-11-21T00:25:11;33.15;;;22.13;;
61915;SDS011;47868;51.326;6.550;2022-11-21T00:27:37;32.47;;;23.15;;
61915;SDS011;47868;51.326;6.550;2022-11-21T00:30:03;32.17;;;22.88;;
61915;SDS011;47868;51.326;6.550;2022-11-21T00:32:31;34.10;;;23.58;;
61915;SDS011;47868;51.326;6.550;2022-11-21T00:34:56;33.95;;;22.60;;
61915;SDS011;47868;51.326;6.550;2022-11-21T00:37:22;34.22;;;23.48;;
61915;SDS011;47868;51.326;6.550;2022-11-21T00:39:48;38.28;;;25.65;;
61915;SDS011;47868;51.326;6.550;2022-11-21T00:42:13;34.42;;;24.95;;
61915;SDS011;47868;51.326;6.550;2022-11-21T00:44:39;38.92;;;25.90;;
61915;SDS011;47868;51.326;6.550;2022-11-21T00:47:04;41.03;;;26.35;;
61915;SDS011;47868;51.326;6.550;2022-11-21T00:49:30;39.25;;;25.92;;
61915;SDS011;47868;51.326;6.550;2022-11-21T00:51:56;42.05;;;27.50;;
61915;SDS011;47868;51.326;6.550;2022-11-21T00:54:21;46.30;;;27.52;;
61915;SDS011;47868;51.326;6.550;2022-11-21T00:56:47;37.55;;;25.70;;
61915;SDS011;47868;51.326;6.550;2022-11-21T00:59:12;39.67;;;26.75;;
61915;SDS011;47868;51.326;6.550;2022-11-21T01:01:38;39.28;;;27.10;;
61915;SDS011;47868;51.326;6.550;2022-11-21T01:04:03;39.85;;;27.13;;
61915;SDS011;47868;51.326;6.550;2022-11-21T01:06:29;41.15;;;26.52;;
61915;SDS011;47868;51.326;6.550;2022-11-21T01:08:55;43.67;;;27.50;;
61915;SDS011;47868;51.326;6.550;2022-11-21T01:11:20;38.60;;;27.17;;
61915;SDS011;47868;51.326;6.550;2022-11-21T01:13:46;44.33;;;28.55;;
61915;SDS011;47868;51.326;6.550;2022-11-21T01:18:38;45.30;;;28.38;;
61915;SDS011;47868;51.326;6.550;2022-11-21T01:21:11;43.88;;;27.88;;
61915;SDS011;47868;51.326;6.550;2022-11-21T01:23:42;44.85;;;27.70;;
61915;SDS011;47868;51.326;6.550;2022-11-21T01:26:09;37.65;;;26.35;;
61915;SDS011;47868;51.326;6.550;2022-11-21T01:28:36;42.00;;;27.27;;
61915;SDS011;47868;51.326;6.550;2022-11-21T01:31:05;41.85;;;28.13;;
61915;SDS011;47868;51.326;6.550;2022-11-21T01:33:33;45.25;;;29.02;;
61915;SDS011;47868;51.326;6.550;2022-11-21T01:38:41;45.80;;;28.55;;
61915;SDS011;47868;51.326;6.550;2022-11-21T01:41:08;46.60;;;29.65;;
61915;SDS011;47868;51.326;6.550;2022-11-21T01:43:35;42.20;;;28.40;;
61915;SDS011;47868;51.326;6.550;2022-11-21T01:51:00;42.25;;;27.65;;
61915;SDS011;47868;51.326;6.550;2022-11-21T01:53:31;45.03;;;28.20;;
61915;SDS011;47868;51.326;6.550;2022-11-21T01:55:58;44.70;;;29.88;;
61915;SDS011;47868;51.326;6.550;2022-11-21T01:58:23;41.15;;;28.40;;
61915;SDS011;47868;51.326;6.550;2022-11-21T02:00:50;42.88;;;28.58;;
61915;SDS011;47868;51.326;6.550;2022-11-21T02:03:17;44.63;;;28.10;;
61915;SDS011;47868;51.326;6.550;2022-11-21T02:05:47;48.20;;;28.35;;
61915;SDS011;47868;51.326;6.550;2022-11-21T02:08:14;43.13;;;28.38;;
61915;SDS011;47868;51.326;6.550;2022-11-21T02:10:46;47.08;;;28.10;;
61915;SDS011;47868;51.326;6.550;2022-11-21T02:13:20;40.10;;;28.27;;
61915;SDS011;47868;51.326;6.550;2022-11-21T02:15:46;42.67;;;27.50;;
61915;SDS011;47868;51.326;6.550;2022-11-21T02:18:12;42.85;;;28.00;;
61915;SDS011;47868;51.326;6.550;2022-11-21T02:20:38;40.78;;;28.17;;
61915;SDS011;47868;51.326;6.550;2022-11-21T02:23:18;42.65;;;27.83;;
61915;SDS011;47868;51.326;6.550;2022-11-21T02:25:50;40.45;;;26.27;;
61915;SDS011;47868;51.326;6.550;2022-11-21T02:28:17;41.92;;;26.27;;
61915;SDS011;47868;51.326;6.550;2022-11-21T02:30:47;42.05;;;27.90;;
61915;SDS011;47868;51.326;6.550;2022-11-21T02:33:14;41.70;;;27.52;;
61915;SDS011;47868;51.326;6.550;2022-11-21T02:35:40;42.78;;;27.38;;
61915;SDS011;47868;51.326;6.550;2022-11-21T02:40:51;39.13;;;27.25;;
61915;SDS011;47868;51.326;6.550;2022-11-21T02:43:23;42.40;;;28.50;;
61915;SDS011;47868;51.326;6.550;2022-11-21T02:45:52;43.60;;;27.08;;
61915;SDS011;47868;51.326;6.550;2022-11-21T02:48:18;48.15;;;29.08;;
61915;SDS011;47868;51.326;6.550;2022-11-21T02:50:44;45.30;;;28.38;;
61915;SDS011;47868;51.326;6.550;2022-11-21T02:53:12;44.80;;;27.65;;
61915;SDS011;47868;51.326;6.550;2022-11-21T02:55:39;44.83;;;29.20;;
61915;SDS011;47868;51.326;6.550;2022-11-21T02:58:06;46.08;;;29.10;;
61915;SDS011;47868;51.326;6.550;2022-11-21T03:00:32;48.03;;;30.92;;
61915;SDS011;47868;51.326;6.550;2022-11-21T03:02:59;52.30;;;30.30;;
61915;SDS011;47868;51.326;6.550;2022-11-21T03:05:25;51.58;;;30.38;;
61915;SDS011;47868;51.326;6.550;2022-11-21T03:07:50;50.47;;;29.40;;
61915;SDS011;47868;51.326;6.550;2022-11-21T03:10:16;49.17;;;29.92;;
61915;SDS011;47868;51.326;6.550;2022-11-21T03:12:42;47.35;;;30.55;;
61915;SDS011;47868;51.326;6.550;2022-11-21T03:15:09;50.95;;;30.27;;
61915;SDS011;47868;51.326;6.550;2022-11-21T03:17:36;47.88;;;30.20;;
61915;SDS011;47868;51.326;6.550;2022-11-21T03:20:02;49.38;;;30.27;;
61915;SDS011;47868;51.326;6.550;2022-11-21T03:22:29;52.30;;;31.08;;
61915;SDS011;47868;51.326;6.550;2022-11-21T03:24:54;47.17;;;30.55;;
61915;SDS011;47868;51.326;6.550;2022-11-21T03:27:20;54.67;;;31.20;;
61915;SDS011;47868;51.326;6.550;2022-11-21T03:29:46;50.38;;;31.20;;
61915;SDS011;47868;51.326;6.550;2022-11-21T03:32:11;54.00;;;32.15;;
61915;SDS011;47868;51.326;6.550;2022-11-21T03:34:37;54.28;;;31.10;;
61915;SDS011;47868;51.326;6.550;2022-11-21T03:37:02;54.10;;;31.05;;
61915;SDS011;47868;51.326;6.550;2022-11-21T03:39:28;49.75;;;31.55;;
61915;SDS011;47868;51.326;6.550;2022-11-21T03:41:54;51.10;;;31.90;;
61915;SDS011;47868;51.326;6.550;2022-11-21T03:44:20;57.20;;;33.00;;
61915;SDS011;47868;51.326;6.550;2022-11-21T03:46:46;53.40;;;33.20;;
61915;SDS011;47868;51.326;6.550;2022-11-21T03:49:12;45.85;;;31.55;;
61915;SDS011;47868;51.326;6.550;2022-11-21T03:51:39;46.22;;;30.63;;
61915;SDS011;47868;51.326;6.550;2022-11-21T03:54:05;47.00;;;30.23;;
61915;SDS011;47868;51.326;6.550;2022-11-21T03:56:31;48.83;;;30.83;;
61915;SDS011;47868;51.326;6.550;2022-11-21T03:58:57;42.55;;;29.17;;
61915;SDS011;47868;51.326;6.550;2022-11-21T04:01:23;47.15;;;30.48;;
61915;SDS011;47868;51.326;6.550;2022-11-21T04:03:49;44.50;;;30.63;;
61915;SDS011;47868;51.326;6.550;2022-11-21T04:06:16;43.15;;;30.25;;
61915;SDS011;47868;51.326;6.550;2022-11-21T04:08:43;43.03;;;29.27;;
61915;SDS011;47868;51.326;6.550;2022-11-21T04:11:09;43.33;;;29.42;;
61915;SDS011;47868;51.326;6.550;2022-11-21T04:13:35;45.50;;;29.58;;
61915;SDS011;47868;51.326;6.550;2022-11-21T04:16:01;43.65;;;29.13;;
61915;SDS011;47868;51.326;6.550;2022-11-21T04:18:26;46.15;;;28.92;;
61915;SDS011;47868;51.326;6.550;2022-11-21T04:20:58;43.80;;;27.77;;
61915;SDS011;47868;51.326;6.550;2022-11-21T04:23:47;46.75;;;28.33;;
61915;SDS011;47868;51.326;6.550;2022-11-21T04:26:12;42.25;;;27.30;;
61915;SDS011;47868;51.326;6.550;2022-11-21T04:28:38;38.47;;;25.88;;
61915;SDS011;47868;51.326;6.550;2022-11-21T04:31:04;44.53;;;27.98;;
61915;SDS011;47868;51.326;6.550;2022-11-21T04:33:30;40.25;;;27.40;;
61915;SDS011;47868;51.326;6.550;2022-11-21T04:35:56;43.45;;;28.55;;
61915;SDS011;47868;51.326;6.550;2022-11-21T04:38:21;46.42;;;30.13;;
61915;SDS011;47868;51.326;6.550;2022-11-21T04:40:47;51.47;;;31.33;;
61915;SDS011;47868;51.326;6.550;2022-11-21T04:43:13;52.33;;;32.15;;
61915;SDS011;47868;51.326;6.550;2022-11-21T04:45:38;55.45;;;34.72;;
61915;SDS011;47868;51.326;6.550;2022-11-21T04:48:04;59.03;;;33.72;;
61915;SDS011;47868;51.326;6.550;2022-11-21T04:50:29;57.17;;;34.78;;
61915;SDS011;47868;51.326;6.550;2022-11-21T04:52:55;53.10;;;33.88;;
61915;SDS011;47868;51.326;6.550;2022-11-21T04:55:22;57.63;;;34.60;;
61915;SDS011;47868;51.326;6.550;2022-11-21T04:57:51;51.08;;;32.72;;
61915;SDS011;47868;51.326;6.550;2022-11-21T05:00:17;58.83;;;35.05;;
61915;SDS011;47868;51.326;6.550;2022-11-21T05:02:43;53.55;;;33.97;;
61915;SDS011;47868;51.326;6.550;2022-11-21T05:05:09;52.28;;;31.92;;
61915;SDS011;47868;51.326;6.550;2022-11-21T05:07:35;54.17;;;32.17;;
61915;SDS011;47868;51.326;6.550;2022-11-21T05:10:01;55.42;;;33.30;;
61915;SDS011;47868;51.326;6.550;2022-11-21T05:12:27;49.90;;;31.80;;
61915;SDS011;47868;51.326;6.550;2022-11-21T05:15:11;50.72;;;32.80;;
61915;SDS011;47868;51.326;6.550;2022-11-21T05:17:37;49.92;;;30.17;;
61915;SDS011;47868;51.326;6.550;2022-11-21T05:20:02;48.63;;;31.52;;
61915;SDS011;47868;51.326;6.550;2022-11-21T05:22:28;46.00;;;30.08;;
61915;SDS011;47868;51.326;6.550;2022-11-21T05:24:54;46.60;;;29.77;;
61915;SDS011;47868;51.326;6.550;2022-11-21T05:27:20;46.15;;;30.33;;
61915;SDS011;47868;51.326;6.550;2022-11-21T05:29:45;45.08;;;30.08;;
61915;SDS011;47868;51.326;6.550;2022-11-21T05:32:11;46.45;;;30.13;;
61915;SDS011;47868;51.326;6.550;2022-11-21T05:34:36;41.28;;;28.15;;
61915;SDS011;47868;51.326;6.550;2022-11-21T05:37:02;45.33;;;29.73;;
61915;SDS011;47868;51.326;6.550;2022-11-21T05:39:28;44.80;;;28.02;;
61915;SDS011;47868;51.326;6.550;2022-11-21T05:41:53;41.50;;;27.60;;
61915;SDS011;47868;51.326;6.550;2022-11-21T05:44:19;45.88;;;29.33;;
61915;SDS011;47868;51.326;6.550;2022-11-21T05:46:45;59.38;;;40.15;;
61915;SDS011;47868;51.326;6.550;2022-11-21T05:49:10;46.80;;;31.38;;
61915;SDS011;47868;51.326;6.550;2022-11-21T05:51:36;45.22;;;30.58;;
61915;SDS011;47868;51.326;6.550;2022-11-21T05:54:02;48.83;;;31.77;;
61915;SDS011;47868;51.326;6.550;2022-11-21T05:56:28;48.53;;;29.92;;
61915;SDS011;47868;51.326;6.550;2022-11-21T05:58:54;47.95;;;29.77;;
61915;SDS011;47868;51.326;6.550;2022-11-21T06:01:21;50.50;;;30.50;;
61915;SDS011;47868;51.326;6.550;2022-11-21T06:04:06;52.38;;;29.10;;
61915;SDS011;47868;51.326;6.550;2022-11-21T06:06:32;45.17;;;28.95;;
61915;SDS011;47868;51.326;6.550;2022-11-21T06:08:58;56.03;;;31.58;;
61915;SDS011;47868;51.326;6.550;2022-11-21T06:11:24;56.35;;;33.13;;
61915;SDS011;47868;51.326;6.550;2022-11-21T06:13:50;51.80;;;32.03;;
61915;SDS011;47868;51.326;6.550;2022-11-21T06:16:17;61.63;;;32.85;;
61915;SDS011;47868;51.326;6.550;2022-11-21T06:18:44;51.05;;;32.00;;
61915;SDS011;47868;51.326;6.550;2022-11-21T06:21:23;54.00;;;31.35;;
61915;SDS011;47868;51.326;6.550;2022-11-21T06:23:50;52.90;;;33.13;;
61915;SDS011;47868;51.326;6.550;2022-11-21T06:26:19;52.35;;;33.83;;
61915;SDS011;47868;51.326;6.550;2022-11-21T06:28:46;54.72;;;31.98;;
61915;SDS011;47868;51.326;6.550;2022-11-21T06:31:16;64.93;;;33.85;;
61915;SDS011;47868;51.326;6.550;2022-11-21T06:33:46;55.80;;;32.72;;
61915;SDS011;47868;51.326;6.550;2022-11-21T06:36:17;66.38;;;33.28;;
61915;SDS011;47868;51.326;6.550;2022-11-21T06:38:43;69.10;;;35.70;;
61915;SDS011;47868;51.326;6.550;2022-11-21T06:41:10;67.47;;;33.17;;
61915;SDS011;47868;51.326;6.550;2022-11-21T06:43:37;64.93;;;34.90;;
61915;SDS011;47868;51.326;6.550;2022-11-21T06:46:03;73.05;;;37.63;;
61915;SDS011;47868;51.326;6.550;2022-11-21T06:48:29;72.28;;;35.78;;
61915;SDS011;47868;51.326;6.550;2022-11-21T06:50:55;74.75;;;36.45;;
61915;SDS011;47868;51.326;6.550;2022-11-21T06:53:22;67.22;;;36.58;;
61915;SDS011;47868;51.326;6.550;2022-11-21T06:55:47;68.57;;;35.00;;
61915;SDS011;47868;51.326;6.550;2022-11-21T06:58:13;70.32;;;35.63;;
61915;SDS011;47868;51.326;6.550;2022-11-21T07:00:39;63.50;;;35.38;;
61915;SDS011;47868;51.326;6.550;2022-11-21T07:03:04;65.00;;;35.85;;
61915;SDS011;47868;51.326;6.550;2022-11-21T07:05:30;71.03;;;36.65;;
61915;SDS011;47868;51.326;6.550;2022-11-21T07:07:59;68.60;;;34.28;;
61915;SDS011;47868;51.326;6.550;2022-11-21T07:10:25;68.15;;;35.13;;
61915;SDS011;47868;51.326;6.550;2022-11-21T07:12:55;70.60;;;35.47;;
61915;SDS011;47868;51.326;6.550;2022-11-21T07:15:43;70.72;;;35.70;;
61915;SDS011;47868;51.326;6.550;2022-11-21T07:18:10;69.35;;;36.63;;
61915;SDS011;47868;51.326;6.550;2022-11-21T07:20:36;74.90;;;37.05;;
61915;SDS011;47868;51.326;6.550;2022-11-21T07:23:02;72.95;;;34.95;;
61915;SDS011;47868;51.326;6.550;2022-11-21T07:25:28;72.07;;;36.17;;
61915;SDS011;47868;51.326;6.550;2022-11-21T07:27:57;74.60;;;36.55;;
61915;SDS011;47868;51.326;6.550;2022-11-21T07:30:23;81.20;;;36.50;;
61915;SDS011;47868;51.326;6.550;2022-11-21T07:32:54;65.28;;;35.33;;
61915;SDS011;47868;51.326;6.550;2022-11-21T07:35:23;71.57;;;36.00;;
61915;SDS011;47868;51.326;6.550;2022-11-21T07:37:49;71.88;;;35.58;;
61915;SDS011;47868;51.326;6.550;2022-11-21T07:40:15;69.40;;;35.20;;
61915;SDS011;47868;51.326;6.550;2022-11-21T07:42:41;74.30;;;36.03;;
61915;SDS011;47868;51.326;6.550;2022-11-21T07:45:07;72.47;;;35.42;;
61915;SDS011;47868;51.326;6.550;2022-11-21T07:47:33;75.55;;;35.03;;
61915;SDS011;47868;51.326;6.550;2022-11-21T07:49:58;73.75;;;34.53;;
61915;SDS011;47868;51.326;6.550;2022-11-21T07:52:24;79.38;;;35.30;;
61915;SDS011;47868;51.326;6.550;2022-11-21T07:54:50;71.60;;;35.90;;
61915;SDS011;47868;51.326;6.550;2022-11-21T07:57:16;70.00;;;35.38;;
61915;SDS011;47868;51.326;6.550;2022-11-21T07:59:41;74.05;;;33.55;;
61915;SDS011;47868;51.326;6.550;2022-11-21T08:02:29;65.45;;;34.03;;
61915;SDS011;47868;51.326;6.550;2022-11-21T08:04:54;58.38;;;32.63;;
61915;SDS011;47868;51.326;6.550;2022-11-21T08:07:20;69.35;;;34.13;;
61915;SDS011;47868;51.326;6.550;2022-11-21T08:09:46;57.20;;;31.65;;
61915;SDS011;47868;51.326;6.550;2022-11-21T08:12:12;59.85;;;30.38;;
61915;SDS011;47868;51.326;6.550;2022-11-21T08:14:39;60.40;;;30.73;;
61915;SDS011;47868;51.326;6.550;2022-11-21T08:17:05;55.38;;;31.17;;
61915;SDS011;47868;51.326;6.550;2022-11-21T08:19:31;58.63;;;29.98;;
61915;SDS011;47868;51.326;6.550;2022-11-21T08:21:57;43.15;;;26.13;;
61915;SDS011;47868;51.326;6.550;2022-11-21T08:24:23;44.53;;;24.25;;
61915;SDS011;47868;51.326;6.550;2022-11-21T08:26:49;50.25;;;25.08;;
61915;SDS011;47868;51.326;6.550;2022-11-21T08:29:16;35.95;;;22.23;;
61915;SDS011;47868;51.326;6.550;2022-11-21T08:31:42;36.05;;;20.20;;
61915;SDS011;47868;51.326;6.550;2022-11-21T08:34:08;33.65;;;17.77;;
61915;SDS011;47868;51.326;6.550;2022-11-21T08:36:34;30.73;;;17.02;;
61915;SDS011;47868;51.326;6.550;2022-11-21T08:39:00;24.45;;;14.82;;
61915;SDS011;47868;51.326;6.550;2022-11-21T08:41:26;17.38;;;13.70;;
61915;SDS011;47868;51.326;6.550;2022-11-21T08:44:11;22.05;;;13.98;;
61915;SDS011;47868;51.326;6.550;2022-11-21T08:46:36;18.35;;;13.18;;
61915;SDS011;47868;51.326;6.550;2022-11-21T08:49:02;21.20;;;13.15;;
61915;SDS011;47868;51.326;6.550;2022-11-21T08:51:28;23.23;;;13.45;;
61915;SDS011;47868;51.326;6.550;2022-11-21T08:53:54;13.98;;;11.15;;
61915;SDS011;47868;51.326;6.550;2022-11-21T08:56:19;19.42;;;12.65;;
61915;SDS011;47868;51.326;6.550;2022-11-21T08:58:45;16.42;;;12.30;;
61915;SDS011;47868;51.326;6.550;2022-11-21T09:01:11;16.98;;;12.13;;
61915;SDS011;47868;51.326;6.550;2022-11-21T09:03:36;18.30;;;13.23;;
61915;SDS011;47868;51.326;6.550;2022-11-21T09:06:02;17.13;;;12.70;;
61915;SDS011;47868;51.326;6.550;2022-11-21T09:08:28;16.63;;;13.25;;
61915;SDS011;47868;51.326;6.550;2022-11-21T09:10:54;18.25;;;12.07;;
61915;SDS011;47868;51.326;6.550;2022-11-21T09:13:19;16.33;;;13.32;;
61915;SDS011;47868;51.326;6.550;2022-11-21T09:15:45;19.92;;;14.07;;
61915;SDS011;47868;51.326;6.550;2022-11-21T09:18:30;17.70;;;12.60;;
61915;SDS011;47868;51.326;6.550;2022-11-21T09:20:55;15.40;;;12.30;;
61915;SDS011;47868;51.326;6.550;2022-11-21T09:23:21;16.60;;;12.30;;
61915;SDS011;47868;51.326;6.550;2022-11-21T09:25:47;14.43;;;12.40;;
61915;SDS011;47868;51.326;6.550;2022-11-21T09:28:12;16.05;;;12.48;;
61915;SDS011;47868;51.326;6.550;2022-11-21T09:30:39;17.33;;;11.75;;
61915;SDS011;47868;51.326;6.550;2022-11-21T09:33:06;14.85;;;12.43;;
61915;SDS011;47868;51.326;6.550;2022-11-21T09:35:34;16.73;;;12.27;;
61915;SDS011;47868;51.326;6.550;2022-11-21T09:38:00;15.18;;;11.98;;
61915;SDS011;47868;51.326;6.550;2022-11-21T09:40:25;18.30;;;13.30;;
61915;SDS011;47868;51.326;6.550;2022-11-21T09:45:47;15.65;;;13.25;;
61915;SDS011;47868;51.326;6.550;2022-11-21T09:48:16;18.58;;;11.43;;
61915;SDS011;47868;51.326;6.550;2022-11-21T09:50:47;15.70;;;12.40;;
61915;SDS011;47868;51.326;6.550;2022-11-21T09:53:25;17.80;;;12.43;;
61915;SDS011;47868;51.326;6.550;2022-11-21T09:56:06;15.23;;;12.18;;
61915;SDS011;47868;51.326;6.550;2022-11-21T09:58:42;21.30;;;10.52;;
61915;SDS011;47868;51.326;6.550;2022-11-21T10:01:26;15.05;;;11.00;;
61915;SDS011;47868;51.326;6.550;2022-11-21T10:03:53;16.73;;;11.23;;
61915;SDS011;47868;51.326;6.550;2022-11-21T10:11:15;16.50;;;10.35;;
61915;SDS011;47868;51.326;6.550;2022-11-21T10:13:48;15.52;;;10.15;;
61915;SDS011;47868;51.326;6.550;2022-11-21T10:25:22;14.70;;;8.88;;
61915;SDS011;47868;51.326;6.550;2022-11-21T10:27:54;13.10;;;8.88;;
61915;SDS011;47868;51.326;6.550;2022-11-21T10:30:24;11.75;;;8.02;;
61915;SDS011;47868;51.326;6.550;2022-11-21T10:32:54;12.77;;;8.63;;
61915;SDS011;47868;51.326;6.550;2022-11-21T10:35:24;13.02;;;7.68;;
61915;SDS011;47868;51.326;6.550;2022-11-21T10:37:54;13.55;;;8.52;;
61915;SDS011;47868;51.326;6.550;2022-11-21T10:43:04;13.20;;;8.40;;
61915;SDS011;47868;51.326;6.550;2022-11-21T10:46:17;22.08;;;8.05;;
61915;SDS011;47868;51.326;6.550;2022-11-21T10:48:45;15.38;;;7.45;;
61915;SDS011;47868;51.326;6.550;2022-11-21T10:52:03;20.67;;;7.60;;
61915;SDS011;47868;51.326;6.550;2022-11-21T10:54:14;11.35;;;7.28;;
61915;SDS011;47868;51.326;6.550;2022-11-21T10:57:00;16.27;;;6.65;;
61915;SDS011;47868;51.326;6.550;2022-11-21T10:59:58;16.27;;;7.53;;
61915;SDS011;47868;51.326;6.550;2022-11-21T11:02:36;13.30;;;7.45;;
61915;SDS011;47868;51.326;6.550;2022-11-21T11:05:22;14.38;;;7.25;;
61915;SDS011;47868;51.326;6.550;2022-11-21T11:08:06;10.23;;;6.60;;
61915;SDS011;47868;51.326;6.550;2022-11-21T11:10:35;14.57;;;7.18;;
61915;SDS011;47868;51.326;6.550;2022-11-21T11:13:11;17.90;;;5.93;;
61915;SDS011;47868;51.326;6.550;2022-11-21T11:18:31;11.52;;;5.68;;
61915;SDS011;47868;51.326;6.550;2022-11-21T11:21:10;10.75;;;5.50;;
61915;SDS011;47868;51.326;6.550;2022-11-21T11:23:47;17.23;;;5.93;;
61915;SDS011;47868;51.326;6.550;2022-11-21T11:28:46;11.43;;;5.85;;
61915;SDS011;47868;51.326;6.550;2022-11-21T11:31:12;13.00;;;5.20;;
61915;SDS011;47868;51.326;6.550;2022-11-21T11:33:39;10.60;;;5.20;;
61915;SDS011;47868;51.326;6.550;2022-11-21T11:36:12;13.35;;;5.60;;
61915;SDS011;47868;51.326;6.550;2022-11-21T11:38:39;9.27;;;4.93;;
61915;SDS011;47868;51.326;6.550;2022-11-21T11:43:59;13.43;;;5.38;;
61915;SDS011;47868;51.326;6.550;2022-11-21T11:50:30;12.07;;;5.68;;
61915;SDS011;47868;51.326;6.550;2022-11-21T11:52:42;8.50;;;5.20;;
61915;SDS011;47868;51.326;6.550;2022-11-21T11:55:25;11.93;;;4.97;;
61915;SDS011;47868;51.326;6.550;2022-11-21T11:59:11;11.50;;;4.75;;
61915;SDS011;47868;51.326;6.550;2022-11-21T12:01:20;11.45;;;4.43;;
61915;SDS011;47868;51.326;6.550;2022-11-21T12:04:06;11.00;;;4.72;;
61915;SDS011;47868;51.326;6.550;2022-11-21T12:06:48;9.32;;;4.18;;
61915;SDS011;47868;51.326;6.550;2022-11-21T12:09:53;11.40;;;3.88;;
61915;SDS011;47868;51.326;6.550;2022-11-21T12:12:40;11.35;;;3.83;;
61915;SDS011;47868;51.326;6.550;2022-11-21T12:18:12;7.85;;;3.00;;
61915;SDS011;47868;51.326;6.550;2022-11-21T12:23:12;7.88;;;3.30;;
61915;SDS011;47868;51.326;6.550;2022-11-21T12:25:40;6.80;;;3.28;;
61915;SDS011;47868;51.326;6.550;2022-11-21T12:28:19;6.55;;;3.45;;
61915;SDS011;47868;51.326;6.550;2022-11-21T12:30:57;8.68;;;3.17;;
61915;SDS011;47868;51.326;6.550;2022-11-21T12:33:30;7.63;;;3.45;;
61915;SDS011;47868;51.326;6.550;2022-11-21T12:36:16;7.55;;;3.38;;
61915;SDS011;47868;51.326;6.550;2022-11-21T12:41:59;7.45;;;2.83;;
61915;SDS011;47868;51.326;6.550;2022-11-21T12:50:37;7.65;;;2.67;;
61915;SDS011;47868;51.326;6.550;2022-11-21T12:56:48;5.35;;;2.20;;
61915;SDS011;47868;51.326;6.550;2022-11-21T12:59:19;6.25;;;2.30;;
61915;SDS011;47868;51.326;6.550;2022-11-21T13:01:51;6.32;;;2.80;;
61915;SDS011;47868;51.326;6.550;2022-11-21T13:04:25;10.60;;;2.50;;
61915;SDS011;47868;51.326;6.550;2022-11-21T13:06:55;7.85;;;2.40;;
61915;SDS011;47868;51.326;6.550;2022-11-21T13:09:22;10.80;;;3.28;;
61915;SDS011;47868;51.326;6.550;2022-11-21T13:12:34;7.20;;;2.67;;
61915;SDS011;47868;51.326;6.550;2022-11-21T13:25:00;9.40;;;3.15;;
61915;SDS011;47868;51.326;6.550;2022-11-21T13:27:30;8.68;;;3.03;;
61915;SDS011;47868;51.326;6.550;2022-11-21T13:38:03;10.93;;;2.75;;
61915;SDS011;47868;51.326;6.550;2022-11-21T13:40:37;6.40;;;2.58;;
61915;SDS011;47868;51.326;6.550;2022-11-21T13:45:47;8.20;;;2.83;;
61915;SDS011;47868;51.326;6.550;2022-11-21T13:53:50;8.82;;;2.92;;
61915;SDS011;47868;51.326;6.550;2022-11-21T13:59:28;6.55;;;3.00;;
61915;SDS011;47868;51.326;6.550;2022-11-21T14:08:10;3.85;;;1.75;;
61915;SDS011;47868;51.326;6.550;2022-11-21T14:10:36;7.05;;;1.95;;
61915;SDS011;47868;51.326;6.550;2022-11-21T14:13:02;4.60;;;1.92;;
61915;SDS011;47868;51.326;6.550;2022-11-21T14:15:39;5.90;;;1.73;;
61915;SDS011;47868;51.326;6.550;2022-11-21T14:18:23;4.78;;;2.13;;
61915;SDS011;47868;51.326;6.550;2022-11-21T14:20:54;6.38;;;1.90;;
61915;SDS011;47868;51.326;6.550;2022-11-21T14:23:25;5.15;;;1.77;;
61915;SDS011;47868;51.326;6.550;2022-11-21T14:25:59;4.15;;;1.85;;
61915;SDS011;47868;51.326;6.550;2022-11-21T14:28:31;7.07;;;2.45;;
61915;SDS011;47868;51.326;6.550;2022-11-21T14:47:16;3.22;;;2.10;;
61915;SDS011;47868;51.326;6.550;2022-11-21T14:49:49;3.55;;;2.08;;
61915;SDS011;47868;51.326;6.550;2022-11-21T14:52:20;6.07;;;2.22;;
61915;SDS011;47868;51.326;6.550;2022-11-21T14:57:22;4.20;;;2.00;;
61915;SDS011;47868;51.326;6.550;2022-11-21T14:59:56;4.68;;;2.05;;
61915;SDS011;47868;51.326;6.550;2022-11-21T15:02:24;2.90;;;1.60;;
61915;SDS011;47868;51.326;6.550;2022-11-21T15:04:53;6.28;;;2.20;;
61915;SDS011;47868;51.326;6.550;2022-11-21T15:07:23;4.10;;;2.05;;
61915;SDS011;47868;51.326;6.550;2022-11-21T15:09:50;5.47;;;2.13;;
61915;SDS011;47868;51.326;6.550;2022-11-21T15:12:26;4.60;;;2.03;;
61915;SDS011;47868;51.326;6.550;2022-11-21T15:17:36;4.07;;;2.00;;
61915;SDS011;47868;51.326;6.550;2022-11-21T15:22:38;6.28;;;2.05;;
61915;SDS011;47868;51.326;6.550;2022-11-21T15:25:14;4.10;;;2.13;;
61915;SDS011;47868;51.326;6.550;2022-11-21T15:27:44;3.63;;;2.10;;
61915;SDS011;47868;51.326;6.550;2022-11-21T15:30:34;6.93;;;2.65;;
61915;SDS011;47868;51.326;6.550;2022-11-21T15:38:11;4.85;;;2.42;;
61915;SDS011;47868;51.326;6.550;2022-11-21T15:40:37;9.95;;;2.83;;
61915;SDS011;47868;51.326;6.550;2022-11-21T15:43:03;6.93;;;2.70;;
61915;SDS011;47868;51.326;6.550;2022-11-21T15:45:31;6.65;;;2.53;;
61915;SDS011;47868;51.326;6.550;2022-11-21T15:47:57;8.60;;;2.92;;
61915;SDS011;47868;51.326;6.550;2022-11-21T15:50:23;9.13;;;2.97;;
61915;SDS011;47868;51.326;6.550;2022-11-21T15:52:49;4.95;;;2.80;;
61915;SDS011;47868;51.326;6.550;2022-11-21T15:55:25;7.32;;;3.08;;
61915;SDS011;47868;51.326;6.550;2022-11-21T15:57:54;7.65;;;2.95;;
61915;SDS011;47868;51.326;6.550;2022-11-21T16:00:19;6.30;;;3.10;;
61915;SDS011;47868;51.326;6.550;2022-11-21T16:02:45;10.15;;;3.13;;
61915;SDS011;47868;51.326;6.550;2022-11-21T16:05:14;7.25;;;3.10;;
61915;SDS011;47868;51.326;6.550;2022-11-21T16:07:40;9.57;;;3.03;;
61915;SDS011;47868;51.326;6.550;2022-11-21T16:10:06;9.20;;;3.45;;
61915;SDS011;47868;51.326;6.550;2022-11-21T16:12:32;8.52;;;3.33;;
61915;SDS011;47868;51.326;6.550;2022-11-21T16:14:59;8.82;;;3.53;;
61915;SDS011;47868;51.326;6.550;2022-11-21T16:17:25;5.28;;;2.83;;
61915;SDS011;47868;51.326;6.550;2022-11-21T16:19:51;5.10;;;2.70;;
61915;SDS011;47868;51.326;6.550;2022-11-21T16:22:16;8.48;;;2.95;;
61915;SDS011;47868;51.326;6.550;2022-11-21T16:24:42;8.02;;;3.03;;
61915;SDS011;47868;51.326;6.550;2022-11-21T16:27:08;9.15;;;3.67;;
61915;SDS011;47868;51.326;6.550;2022-11-21T16:29:33;4.47;;;2.63;;
61915;SDS011;47868;51.326;6.550;2022-11-21T16:31:59;11.15;;;3.03;;
61915;SDS011;47868;51.326;6.550;2022-11-21T16:34:25;5.68;;;2.88;;
61915;SDS011;47868;51.326;6.550;2022-11-21T16:36:51;4.10;;;2.83;;
61915;SDS011;47868;51.326;6.550;2022-11-21T16:39:18;7.03;;;3.20;;
61915;SDS011;47868;51.326;6.550;2022-11-21T16:41:43;7.70;;;3.10;;
61915;SDS011;47868;51.326;6.550;2022-11-21T16:44:11;9.45;;;5.05;;
61915;SDS011;47868;51.326;6.550;2022-11-21T16:46:40;7.40;;;4.53;;